Terminal Aerodrome Forecast
Issued by NWS

Home | Current Version | Previous Version | Text Only | Print | Product List | Glossary On
Versions: 1 2 3 4 5 6 7 8 9 10 11 12 13 14 15
000
FTUS41 KCAR 181120
TAFBHB
TAF
KBHB 181120Z 1812/1912 06009KT P6SM OVC025
     FM181500 09011KT P6SM SCT025 OVC050
     FM182200 08011KT P6SM OVC025
     FM190500 08004KT P6SM OVC015=

USA.gov is the U.S. government's official web portal to all federal, state and local government web resources and services.